Airfield :
LOGIN :

Register | Disclaimer

   EN    FR    IT 

 










Legend :    VFR   Marginal VFR   IFR   Intensive IFR   Very Intensive IFR
Visi :
Ceiling :
>= 8 km
>= 3000ft
5 to 8 km
1000 to 3000 ft
1500m to 5 km
500 to 1000 ft
800 to 1500m
200 to 500 ft
< 800m
< 200 ft
Symbols :   Thunderstorms  Fog  Heavy snow  Heavy precipitations  Wind > 20 kt
SIGMETs :     Misc.  Thunderstorms  Icing  Turbulence  Mountain Waves  Volcanic Ashes






- Airport Elevation : 194 ft


EBCV - Chièvres

CURRENT METAR :
  • 170155Z AUTO VRB01KT 9999 NCD 07/05 Q1020 BLU

EXPIRED METARs :
  • 170125Z AUTO VRB01KT 9999 NCD 06/05 Q1020 BLU
  • 170055Z AUTO VRB02KT 9999 NCD 07/05 Q1020 BLU
  • 170025Z AUTO VRB01KT 9999 BKN063/// 07/05 Q1020 BLU
  • 162355Z AUTO VRB02KT 9999 BKN065/// 07/05 Q1020 BLU

TAF TAF EBCV
Valid from the 16 at 19:00 until the 17 at 07:00 UTC


161541Z 1619/1707 06003KT 9999 NSW FEW050
BECMG 1619/1621 16005KT SCT050 BKN280 BY EBWM



MET'MAP, your aeronautical weather chart ! - Copyright ORBIFLY December 2007 - Disclaimer

ORBIFLY MET'MAP TEAM :

Programming & Development : Alexandra Zaïnal
Concept & original design : Baudouin d'Aumeries
Assistance for programming : Marc-Olivier Méhu
Technical & hardware support : Manuel Goepfert

Contact : metmap@orbifly.com




SOURCES & CREDITS :

   NOAA